sensor_id;sensor_type;location;lat;lon;timestamp;temperature;humidity
79711;DHT22;69465;51.630;6.570;2023-06-10T00:01:03;21.80;38.30
79711;DHT22;69465;51.630;6.570;2023-06-10T00:03:29;21.70;38.40
79711;DHT22;69465;51.630;6.570;2023-06-10T00:05:56;21.70;38.50
79711;DHT22;69465;51.630;6.570;2023-06-10T00:08:23;21.60;38.70
79711;DHT22;69465;51.630;6.570;2023-06-10T00:10:50;21.60;38.70
79711;DHT22;69465;51.630;6.570;2023-06-10T00:13:16;21.60;39.10
79711;DHT22;69465;51.630;6.570;2023-06-10T00:15:43;21.60;39.20
79711;DHT22;69465;51.630;6.570;2023-06-10T00:18:10;21.50;39.30
79711;DHT22;69465;51.630;6.570;2023-06-10T00:20:36;21.50;39.50
79711;DHT22;69465;51.630;6.570;2023-06-10T00:23:03;21.50;39.80
79711;DHT22;69465;51.630;6.570;2023-06-10T00:25:30;21.40;39.70
79711;DHT22;69465;51.630;6.570;2023-06-10T00:27:57;21.40;40.10
79711;DHT22;69465;51.630;6.570;2023-06-10T00:30:23;21.30;40.50
79711;DHT22;69465;51.630;6.570;2023-06-10T00:32:50;21.20;40.50
79711;DHT22;69465;51.630;6.570;2023-06-10T00:35:17;21.20;40.50
79711;DHT22;69465;51.630;6.570;2023-06-10T00:37:43;21.20;40.50
79711;DHT22;69465;51.630;6.570;2023-06-10T00:40:10;21.10;40.40
79711;DHT22;69465;51.630;6.570;2023-06-10T00:42:37;21.10;40.40
79711;DHT22;69465;51.630;6.570;2023-06-10T00:45:05;21.10;40.40
79711;DHT22;69465;51.630;6.570;2023-06-10T00:47:32;21.10;40.40
79711;DHT22;69465;51.630;6.570;2023-06-10T00:49:59;21.00;40.40
79711;DHT22;69465;51.630;6.570;2023-06-10T00:52:28;21.00;40.70
79711;DHT22;69465;51.630;6.570;2023-06-10T00:54:55;21.00;40.90
79711;DHT22;69465;51.630;6.570;2023-06-10T00:57:22;21.00;41.20
79711;DHT22;69465;51.630;6.570;2023-06-10T00:59:49;20.90;41.30
79711;DHT22;69465;51.630;6.570;2023-06-10T01:02:16;20.90;41.50
79711;DHT22;69465;51.630;6.570;2023-06-10T01:04:43;20.90;41.80
79711;DHT22;69465;51.630;6.570;2023-06-10T01:08:16;20.90;42.00
79711;DHT22;69465;51.630;6.570;2023-06-10T01:10:24;20.80;42.10
79711;DHT22;69465;51.630;6.570;2023-06-10T01:13:00;20.80;41.90
79711;DHT22;69465;51.630;6.570;2023-06-10T01:15:26;20.70;42.30
79711;DHT22;69465;51.630;6.570;2023-06-10T01:18:01;20.70;42.20
79711;DHT22;69465;51.630;6.570;2023-06-10T01:20:29;20.60;42.20
79711;DHT22;69465;51.630;6.570;2023-06-10T01:22:58;20.60;42.50
79711;DHT22;69465;51.630;6.570;2023-06-10T01:25:26;20.50;42.60
79711;DHT22;69465;51.630;6.570;2023-06-10T01:28:02;20.50;42.80
79711;DHT22;69465;51.630;6.570;2023-06-10T01:30:33;20.50;42.90
79711;DHT22;69465;51.630;6.570;2023-06-10T01:33:04;20.40;42.80
79711;DHT22;69465;51.630;6.570;2023-06-10T01:35:37;20.40;43.00
79711;DHT22;69465;51.630;6.570;2023-06-10T01:38:05;20.30;43.10
79711;DHT22;69465;51.630;6.570;2023-06-10T01:40:33;20.30;43.20
79711;DHT22;69465;51.630;6.570;2023-06-10T01:43:00;20.20;43.40
79711;DHT22;69465;51.630;6.570;2023-06-10T01:45:26;20.20;43.60
79711;DHT22;69465;51.630;6.570;2023-06-10T01:47:53;20.20;43.60
79711;DHT22;69465;51.630;6.570;2023-06-10T01:50:20;20.10;43.80
79711;DHT22;69465;51.630;6.570;2023-06-10T01:52:46;20.10;43.60
79711;DHT22;69465;51.630;6.570;2023-06-10T01:55:13;20.10;44.00
79711;DHT22;69465;51.630;6.570;2023-06-10T01:57:40;20.00;43.90
79711;DHT22;69465;51.630;6.570;2023-06-10T02:00:07;20.00;43.70
79711;DHT22;69465;51.630;6.570;2023-06-10T02:02:34;20.00;43.80
79711;DHT22;69465;51.630;6.570;2023-06-10T02:05:01;19.90;43.80
79711;DHT22;69465;51.630;6.570;2023-06-10T02:07:27;19.90;44.30
79711;DHT22;69465;51.630;6.570;2023-06-10T02:09:54;19.90;44.00
79711;DHT22;69465;51.630;6.570;2023-06-10T02:12:21;19.80;44.20
79711;DHT22;69465;51.630;6.570;2023-06-10T02:14:47;19.80;43.80
79711;DHT22;69465;51.630;6.570;2023-06-10T02:17:14;19.80;43.90
79711;DHT22;69465;51.630;6.570;2023-06-10T02:19:41;19.70;44.10
79711;DHT22;69465;51.630;6.570;2023-06-10T02:22:09;19.70;44.10
79711;DHT22;69465;51.630;6.570;2023-06-10T02:24:36;19.70;44.10
79711;DHT22;69465;51.630;6.570;2023-06-10T02:27:04;19.70;44.10
79711;DHT22;69465;51.630;6.570;2023-06-10T02:29:32;19.70;44.10
79711;DHT22;69465;51.630;6.570;2023-06-10T02:31:59;19.60;44.00
79711;DHT22;69465;51.630;6.570;2023-06-10T02:34:26;19.60;44.00
79711;DHT22;69465;51.630;6.570;2023-06-10T02:36:53;19.60;44.10
79711;DHT22;69465;51.630;6.570;2023-06-10T02:39:41;19.50;43.90
79711;DHT22;69465;51.630;6.570;2023-06-10T02:42:08;19.50;43.90
79711;DHT22;69465;51.630;6.570;2023-06-10T02:44:35;19.50;43.90
79711;DHT22;69465;51.630;6.570;2023-06-10T02:47:01;19.40;43.90
79711;DHT22;69465;51.630;6.570;2023-06-10T02:49:28;19.40;44.80
79711;DHT22;69465;51.630;6.570;2023-06-10T02:51:55;19.40;44.20
79711;DHT22;69465;51.630;6.570;2023-06-10T02:54:23;19.30;44.50
79711;DHT22;69465;51.630;6.570;2023-06-10T02:56:50;19.30;44.40
79711;DHT22;69465;51.630;6.570;2023-06-10T02:59:17;19.30;44.40
79711;DHT22;69465;51.630;6.570;2023-06-10T03:01:45;19.30;44.60
79711;DHT22;69465;51.630;6.570;2023-06-10T03:04:12;19.20;44.30
79711;DHT22;69465;51.630;6.570;2023-06-10T03:06:39;19.20;44.30
79711;DHT22;69465;51.630;6.570;2023-06-10T03:09:07;19.20;44.90
79711;DHT22;69465;51.630;6.570;2023-06-10T03:11:34;19.20;44.60
79711;DHT22;69465;51.630;6.570;2023-06-10T03:14:01;19.10;44.50
79711;DHT22;69465;51.630;6.570;2023-06-10T03:16:28;19.10;44.80
79711;DHT22;69465;51.630;6.570;2023-06-10T03:18:54;19.10;44.80
79711;DHT22;69465;51.630;6.570;2023-06-10T03:21:21;19.00;44.60
79711;DHT22;69465;51.630;6.570;2023-06-10T03:23:48;19.00;45.20
79711;DHT22;69465;51.630;6.570;2023-06-10T03:26:15;19.00;44.70
79711;DHT22;69465;51.630;6.570;2023-06-10T03:28:42;19.00;44.50
79711;DHT22;69465;51.630;6.570;2023-06-10T03:31:08;19.00;44.90
79711;DHT22;69465;51.630;6.570;2023-06-10T03:33:35;18.90;45.20
79711;DHT22;69465;51.630;6.570;2023-06-10T03:36:02;18.90;44.70
79711;DHT22;69465;51.630;6.570;2023-06-10T03:38:28;18.90;45.20
79711;DHT22;69465;51.630;6.570;2023-06-10T03:40:55;18.90;44.50
79711;DHT22;69465;51.630;6.570;2023-06-10T03:43:22;18.90;45.70
79711;DHT22;69465;51.630;6.570;2023-06-10T03:45:48;18.90;45.40
79711;DHT22;69465;51.630;6.570;2023-06-10T03:48:15;18.90;44.40
79711;DHT22;69465;51.630;6.570;2023-06-10T03:50:42;18.90;44.70
79711;DHT22;69465;51.630;6.570;2023-06-10T03:53:08;18.90;44.20
79711;DHT22;69465;51.630;6.570;2023-06-10T03:55:35;19.00;44.10
79711;DHT22;69465;51.630;6.570;2023-06-10T03:58:02;19.00;43.90
79711;DHT22;69465;51.630;6.570;2023-06-10T04:00:29;19.00;44.20
79711;DHT22;69465;51.630;6.570;2023-06-10T04:02:55;19.10;43.80
79711;DHT22;69465;51.630;6.570;2023-06-10T04:05:22;19.10;43.60
79711;DHT22;69465;51.630;6.570;2023-06-10T04:07:49;19.20;43.70
79711;DHT22;69465;51.630;6.570;2023-06-10T04:10:16;19.20;43.70
79711;DHT22;69465;51.630;6.570;2023-06-10T04:12:43;19.30;43.80
79711;DHT22;69465;51.630;6.570;2023-06-10T04:15:10;19.20;43.70
79711;DHT22;69465;51.630;6.570;2023-06-10T04:17:38;19.30;44.60
79711;DHT22;69465;51.630;6.570;2023-06-10T04:20:05;19.30;43.80
79711;DHT22;69465;51.630;6.570;2023-06-10T04:22:33;19.40;43.20
79711;DHT22;69465;51.630;6.570;2023-06-10T04:24:59;19.40;43.80
79711;DHT22;69465;51.630;6.570;2023-06-10T04:27:26;19.40;43.90
79711;DHT22;69465;51.630;6.570;2023-06-10T04:29:52;19.50;43.20
79711;DHT22;69465;51.630;6.570;2023-06-10T04:32:19;19.50;42.90
79711;DHT22;69465;51.630;6.570;2023-06-10T04:34:46;19.60;43.00
79711;DHT22;69465;51.630;6.570;2023-06-10T04:37:13;19.60;43.00
79711;DHT22;69465;51.630;6.570;2023-06-10T04:39:39;19.60;42.60
79711;DHT22;69465;51.630;6.570;2023-06-10T04:42:06;19.70;42.60
79711;DHT22;69465;51.630;6.570;2023-06-10T04:44:33;19.80;42.60
79711;DHT22;69465;51.630;6.570;2023-06-10T04:47:00;19.80;41.90
79711;DHT22;69465;51.630;6.570;2023-06-10T04:49:27;19.80;41.70
79711;DHT22;69465;51.630;6.570;2023-06-10T04:51:53;19.90;41.60
79711;DHT22;69465;51.630;6.570;2023-06-10T04:54:20;20.00;41.60
79711;DHT22;69465;51.630;6.570;2023-06-10T04:56:47;20.00;41.50
79711;DHT22;69465;51.630;6.570;2023-06-10T04:59:14;20.10;41.20
79711;DHT22;69465;51.630;6.570;2023-06-10T05:01:41;20.20;40.90
79711;DHT22;69465;51.630;6.570;2023-06-10T05:04:08;20.30;40.80
79711;DHT22;69465;51.630;6.570;2023-06-10T05:06:34;20.40;40.70
79711;DHT22;69465;51.630;6.570;2023-06-10T05:09:01;20.90;40.30
79711;DHT22;69465;51.630;6.570;2023-06-10T05:11:28;21.60;39.10
79711;DHT22;69465;51.630;6.570;2023-06-10T05:13:54;22.40;37.30
79711;DHT22;69465;51.630;6.570;2023-06-10T05:16:21;23.40;35.80
79711;DHT22;69465;51.630;6.570;2023-06-10T05:18:48;24.40;34.60
79711;DHT22;69465;51.630;6.570;2023-06-10T05:21:14;25.20;32.00
79711;DHT22;69465;51.630;6.570;2023-06-10T05:23:41;26.10;30.00
79711;DHT22;69465;51.630;6.570;2023-06-10T05:26:07;26.90;29.10
79711;DHT22;69465;51.630;6.570;2023-06-10T05:28:34;27.50;27.40
79711;DHT22;69465;51.630;6.570;2023-06-10T05:31:01;28.00;27.40
79711;DHT22;69465;51.630;6.570;2023-06-10T05:33:27;28.70;26.20
79711;DHT22;69465;51.630;6.570;2023-06-10T05:35:54;29.20;25.50
79711;DHT22;69465;51.630;6.570;2023-06-10T05:38:20;29.70;24.70
79711;DHT22;69465;51.630;6.570;2023-06-10T05:40:47;29.90;24.40
79711;DHT22;69465;51.630;6.570;2023-06-10T05:43:14;30.20;23.70
79711;DHT22;69465;51.630;6.570;2023-06-10T05:45:40;30.60;23.50
79711;DHT22;69465;51.630;6.570;2023-06-10T05:48:07;30.70;23.00
79711;DHT22;69465;51.630;6.570;2023-06-10T05:50:34;31.00;22.80
79711;DHT22;69465;51.630;6.570;2023-06-10T05:53:00;31.30;22.10
79711;DHT22;69465;51.630;6.570;2023-06-10T05:55:27;31.70;21.90
79711;DHT22;69465;51.630;6.570;2023-06-10T05:58:00;32.10;21.40
79711;DHT22;69465;51.630;6.570;2023-06-10T06:00:26;32.70;20.90
79711;DHT22;69465;51.630;6.570;2023-06-10T06:02:54;33.10;20.20
79711;DHT22;69465;51.630;6.570;2023-06-10T06:05:21;33.60;19.60
79711;DHT22;69465;51.630;6.570;2023-06-10T06:07:48;33.90;19.30
79711;DHT22;69465;51.630;6.570;2023-06-10T06:10:17;34.10;18.50
79711;DHT22;69465;51.630;6.570;2023-06-10T06:12:44;34.00;19.00
79711;DHT22;69465;51.630;6.570;2023-06-10T06:15:11;34.20;19.10
79711;DHT22;69465;51.630;6.570;2023-06-10T06:17:38;34.60;18.10
79711;DHT22;69465;51.630;6.570;2023-06-10T06:20:06;34.70;17.70
79711;DHT22;69465;51.630;6.570;2023-06-10T06:22:32;34.80;17.70
79711;DHT22;69465;51.630;6.570;2023-06-10T06:24:59;35.10;17.90
79711;DHT22;69465;51.630;6.570;2023-06-10T06:27:26;35.40;18.10
79711;DHT22;69465;51.630;6.570;2023-06-10T06:29:52;35.60;16.80
79711;DHT22;69465;51.630;6.570;2023-06-10T06:32:20;35.30;16.90
79711;DHT22;69465;51.630;6.570;2023-06-10T06:34:46;35.10;16.80
79711;DHT22;69465;51.630;6.570;2023-06-10T06:37:13;34.80;17.20
79711;DHT22;69465;51.630;6.570;2023-06-10T06:39:39;34.60;17.60
79711;DHT22;69465;51.630;6.570;2023-06-10T06:42:07;34.50;18.10
79711;DHT22;69465;51.630;6.570;2023-06-10T06:44:33;34.30;17.00
79711;DHT22;69465;51.630;6.570;2023-06-10T06:47:00;34.00;17.30
79711;DHT22;69465;51.630;6.570;2023-06-10T06:49:27;33.90;18.30
79711;DHT22;69465;51.630;6.570;2023-06-10T06:51:53;34.30;17.50
79711;DHT22;69465;51.630;6.570;2023-06-10T06:54:20;34.40;17.50
79711;DHT22;69465;51.630;6.570;2023-06-10T06:56:46;34.40;17.80
79711;DHT22;69465;51.630;6.570;2023-06-10T06:59:13;34.50;17.60
79711;DHT22;69465;51.630;6.570;2023-06-10T07:01:39;34.70;17.10
79711;DHT22;69465;51.630;6.570;2023-06-10T07:04:06;34.80;17.20
79711;DHT22;69465;51.630;6.570;2023-06-10T07:06:33;35.00;16.70
79711;DHT22;69465;51.630;6.570;2023-06-10T07:09:04;35.10;16.70
79711;DHT22;69465;51.630;6.570;2023-06-10T07:11:31;35.50;16.40
79711;DHT22;69465;51.630;6.570;2023-06-10T07:13:58;36.10;15.90
79711;DHT22;69465;51.630;6.570;2023-06-10T07:16:25;36.30;15.40
79711;DHT22;69465;51.630;6.570;2023-06-10T07:18:53;36.10;15.40
79711;DHT22;69465;51.630;6.570;2023-06-10T07:21:19;36.20;15.70
79711;DHT22;69465;51.630;6.570;2023-06-10T07:23:46;36.40;16.00
79711;DHT22;69465;51.630;6.570;2023-06-10T07:26:13;36.60;15.20
79711;DHT22;69465;51.630;6.570;2023-06-10T07:28:40;36.90;14.80
79711;DHT22;69465;51.630;6.570;2023-06-10T07:31:07;37.10;14.60
79711;DHT22;69465;51.630;6.570;2023-06-10T07:33:35;37.20;14.70
79711;DHT22;69465;51.630;6.570;2023-06-10T07:36:01;37.40;14.60
79711;DHT22;69465;51.630;6.570;2023-06-10T07:38:28;37.30;14.70
79711;DHT22;69465;51.630;6.570;2023-06-10T07:40:54;37.00;14.60
79711;DHT22;69465;51.630;6.570;2023-06-10T07:43:21;36.80;14.60
79711;DHT22;69465;51.630;6.570;2023-06-10T07:45:47;37.10;15.00
79711;DHT22;69465;51.630;6.570;2023-06-10T07:48:14;37.40;14.80
79711;DHT22;69465;51.630;6.570;2023-06-10T07:50:41;37.70;14.90
79711;DHT22;69465;51.630;6.570;2023-06-10T07:53:07;38.20;14.30
79711;DHT22;69465;51.630;6.570;2023-06-10T07:55:34;38.20;14.10
79711;DHT22;69465;51.630;6.570;2023-06-10T07:58:00;38.60;14.20
79711;DHT22;69465;51.630;6.570;2023-06-10T08:00:27;38.60;13.40
79711;DHT22;69465;51.630;6.570;2023-06-10T08:02:54;38.90;13.40
79711;DHT22;69465;51.630;6.570;2023-06-10T08:05:21;39.20;13.10
79711;DHT22;69465;51.630;6.570;2023-06-10T08:07:47;39.10;12.70
79711;DHT22;69465;51.630;6.570;2023-06-10T08:10:14;39.10;13.00
79711;DHT22;69465;51.630;6.570;2023-06-10T08:12:40;39.00;13.20
79711;DHT22;69465;51.630;6.570;2023-06-10T08:15:07;38.80;13.50
79711;DHT22;69465;51.630;6.570;2023-06-10T08:17:35;38.90;13.20
79711;DHT22;69465;51.630;6.570;2023-06-10T08:20:02;39.10;13.10
79711;DHT22;69465;51.630;6.570;2023-06-10T08:22:28;39.00;12.70
79711;DHT22;69465;51.630;6.570;2023-06-10T08:24:55;39.10;12.80
79711;DHT22;69465;51.630;6.570;2023-06-10T08:27:22;39.50;13.50
79711;DHT22;69465;51.630;6.570;2023-06-10T08:29:48;39.60;12.50
79711;DHT22;69465;51.630;6.570;2023-06-10T08:32:15;39.70;13.00
79711;DHT22;69465;51.630;6.570;2023-06-10T08:34:42;40.00;13.80
79711;DHT22;69465;51.630;6.570;2023-06-10T08:37:08;40.40;13.30
79711;DHT22;69465;51.630;6.570;2023-06-10T08:39:35;40.70;12.20
79711;DHT22;69465;51.630;6.570;2023-06-10T08:44:54;40.80;12.20
79711;DHT22;69465;51.630;6.570;2023-06-10T08:47:23;40.80;12.20
79711;DHT22;69465;51.630;6.570;2023-06-10T08:49:51;40.50;12.00
79711;DHT22;69465;51.630;6.570;2023-06-10T08:52:19;40.50;12.80
79711;DHT22;69465;51.630;6.570;2023-06-10T08:54:57;40.60;12.10
79711;DHT22;69465;51.630;6.570;2023-06-10T08:57:27;40.90;11.40
79711;DHT22;69465;51.630;6.570;2023-06-10T08:59:55;41.30;11.60
79711;DHT22;69465;51.630;6.570;2023-06-10T09:02:23;41.50;12.60
79711;DHT22;69465;51.630;6.570;2023-06-10T09:04:50;41.50;11.10
79711;DHT22;69465;51.630;6.570;2023-06-10T09:07:17;41.60;10.90
79711;DHT22;69465;51.630;6.570;2023-06-10T09:09:44;41.30;12.00
79711;DHT22;69465;51.630;6.570;2023-06-10T09:12:14;41.40;11.40
79711;DHT22;69465;51.630;6.570;2023-06-10T09:14:42;41.40;11.30
79711;DHT22;69465;51.630;6.570;2023-06-10T09:17:08;41.10;11.30
79711;DHT22;69465;51.630;6.570;2023-06-10T09:19:36;40.90;11.60
79711;DHT22;69465;51.630;6.570;2023-06-10T09:22:05;40.40;11.80
79711;DHT22;69465;51.630;6.570;2023-06-10T09:24:32;40.20;11.90
79711;DHT22;69465;51.630;6.570;2023-06-10T09:27:05;40.20;12.70
79711;DHT22;69465;51.630;6.570;2023-06-10T09:29:51;40.40;12.00
79711;DHT22;69465;51.630;6.570;2023-06-10T09:32:19;40.60;11.10
79711;DHT22;69465;51.630;6.570;2023-06-10T09:34:46;41.10;11.10
79711;DHT22;69465;51.630;6.570;2023-06-10T09:37:20;41.40;12.50
79711;DHT22;69465;51.630;6.570;2023-06-10T09:40:02;41.50;12.60
79711;DHT22;69465;51.630;6.570;2023-06-10T09:42:32;41.80;12.50
79711;DHT22;69465;51.630;6.570;2023-06-10T09:44:59;41.80;12.00
79711;DHT22;69465;51.630;6.570;2023-06-10T09:47:26;42.00;12.10
79711;DHT22;69465;51.630;6.570;2023-06-10T09:49:53;42.10;10.70
79711;DHT22;69465;51.630;6.570;2023-06-10T09:52:23;42.30;11.10
79711;DHT22;69465;51.630;6.570;2023-06-10T09:54:51;42.20;10.80
79711;DHT22;69465;51.630;6.570;2023-06-10T09:57:20;42.00;12.50
79711;DHT22;69465;51.630;6.570;2023-06-10T09:59:47;41.60;12.60
79711;DHT22;69465;51.630;6.570;2023-06-10T10:02:18;41.50;12.10
79711;DHT22;69465;51.630;6.570;2023-06-10T10:04:44;41.20;11.60
79711;DHT22;69465;51.630;6.570;2023-06-10T10:07:11;41.10;11.30
79711;DHT22;69465;51.630;6.570;2023-06-10T10:09:39;40.50;12.10
79711;DHT22;69465;51.630;6.570;2023-06-10T10:12:09;40.10;11.80
79711;DHT22;69465;51.630;6.570;2023-06-10T10:14:37;39.90;11.70
79711;DHT22;69465;51.630;6.570;2023-06-10T10:17:10;39.90;11.50
79711;DHT22;69465;51.630;6.570;2023-06-10T10:19:47;39.60;12.20
79711;DHT22;69465;51.630;6.570;2023-06-10T10:22:25;39.40;11.50
79711;DHT22;69465;51.630;6.570;2023-06-10T10:24:55;39.40;12.40
79711;DHT22;69465;51.630;6.570;2023-06-10T10:27:33;39.50;12.60
79711;DHT22;69465;51.630;6.570;2023-06-10T10:30:03;39.30;13.90
79711;DHT22;69465;51.630;6.570;2023-06-10T10:32:46;39.40;12.80
79711;DHT22;69465;51.630;6.570;2023-06-10T10:35:20;39.20;12.60
79711;DHT22;69465;51.630;6.570;2023-06-10T10:37:47;39.10;13.50
79711;DHT22;69465;51.630;6.570;2023-06-10T10:40:15;39.20;12.00
79711;DHT22;69465;51.630;6.570;2023-06-10T10:42:42;39.20;12.20
79711;DHT22;69465;51.630;6.570;2023-06-10T10:45:09;39.00;11.80
79711;DHT22;69465;51.630;6.570;2023-06-10T10:47:37;38.90;11.80
79711;DHT22;69465;51.630;6.570;2023-06-10T10:50:14;39.10;12.60
79711;DHT22;69465;51.630;6.570;2023-06-10T10:52:58;38.80;12.10
79711;DHT22;69465;51.630;6.570;2023-06-10T10:55:26;38.60;11.80
79711;DHT22;69465;51.630;6.570;2023-06-10T11:00:28;38.40;12.60
79711;DHT22;69465;51.630;6.570;2023-06-10T11:02:58;38.10;11.30
79711;DHT22;69465;51.630;6.570;2023-06-10T11:05:48;38.00;11.90
79711;DHT22;69465;51.630;6.570;2023-06-10T11:11:23;37.50;13.60
79711;DHT22;69465;51.630;6.570;2023-06-10T11:14:06;37.10;12.50
79711;DHT22;69465;51.630;6.570;2023-06-10T11:16:43;36.70;12.70
79711;DHT22;69465;51.630;6.570;2023-06-10T11:19:10;36.30;12.60
79711;DHT22;69465;51.630;6.570;2023-06-10T11:22:07;35.90;13.80
79711;DHT22;69465;51.630;6.570;2023-06-10T11:24:34;35.80;13.50
79711;DHT22;69465;51.630;6.570;2023-06-10T11:27:20;35.40;13.40
79711;DHT22;69465;51.630;6.570;2023-06-10T11:29:58;35.10;12.60
79711;DHT22;69465;51.630;6.570;2023-06-10T11:32:29;34.70;13.20
79711;DHT22;69465;51.630;6.570;2023-06-10T11:34:57;34.50;15.10
79711;DHT22;69465;51.630;6.570;2023-06-10T11:37:24;34.10;14.90
79711;DHT22;69465;51.630;6.570;2023-06-10T11:39:54;33.90;15.30
79711;DHT22;69465;51.630;6.570;2023-06-10T11:42:22;33.60;14.80
79711;DHT22;69465;51.630;6.570;2023-06-10T11:44:54;33.30;16.70
79711;DHT22;69465;51.630;6.570;2023-06-10T11:47:21;33.20;15.70
79711;DHT22;69465;51.630;6.570;2023-06-10T11:49:56;33.20;15.90
79711;DHT22;69465;51.630;6.570;2023-06-10T11:52:27;33.10;15.10
79711;DHT22;69465;51.630;6.570;2023-06-10T11:54:54;33.00;17.10
79711;DHT22;69465;51.630;6.570;2023-06-10T11:57:21;33.00;16.70
79711;DHT22;69465;51.630;6.570;2023-06-10T11:59:48;33.00;16.30
79711;DHT22;69465;51.630;6.570;2023-06-10T12:02:16;32.90;15.90
79711;DHT22;69465;51.630;6.570;2023-06-10T12:04:42;32.70;16.10
79711;DHT22;69465;51.630;6.570;2023-06-10T12:07:17;32.70;16.20
79711;DHT22;69465;51.630;6.570;2023-06-10T12:09:44;32.60;16.60
79711;DHT22;69465;51.630;6.570;2023-06-10T12:12:11;32.60;16.60
79711;DHT22;69465;51.630;6.570;2023-06-10T12:14:54;32.60;15.60
79711;DHT22;69465;51.630;6.570;2023-06-10T12:19:50;32.50;15.80
79711;DHT22;69465;51.630;6.570;2023-06-10T12:22:17;32.50;16.70
79711;DHT22;69465;51.630;6.570;2023-06-10T12:24:56;32.50;16.50
79711;DHT22;69465;51.630;6.570;2023-06-10T12:27:24;32.50;16.50
79711;DHT22;69465;51.630;6.570;2023-06-10T12:29:52;32.50;16.50
79711;DHT22;69465;51.630;6.570;2023-06-10T12:32:18;32.40;17.50
79711;DHT22;69465;51.630;6.570;2023-06-10T12:34:45;32.40;16.50
79711;DHT22;69465;51.630;6.570;2023-06-10T12:37:12;32.40;16.50
79711;DHT22;69465;51.630;6.570;2023-06-10T12:39:40;32.40;18.20
79711;DHT22;69465;51.630;6.570;2023-06-10T12:42:08;32.40;19.00
79711;DHT22;69465;51.630;6.570;2023-06-10T12:44:39;32.50;16.50
79711;DHT22;69465;51.630;6.570;2023-06-10T12:47:10;32.50;17.40
79711;DHT22;69465;51.630;6.570;2023-06-10T12:49:36;32.60;16.50
79711;DHT22;69465;51.630;6.570;2023-06-10T12:52:04;32.50;17.20
79711;DHT22;69465;51.630;6.570;2023-06-10T12:54:31;32.50;16.50
79711;DHT22;69465;51.630;6.570;2023-06-10T12:56:57;32.60;16.60
79711;DHT22;69465;51.630;6.570;2023-06-10T12:59:24;32.50;16.10
79711;DHT22;69465;51.630;6.570;2023-06-10T13:01:54;32.40;16.50
79711;DHT22;69465;51.630;6.570;2023-06-10T13:04:21;32.50;16.50
79711;DHT22;69465;51.630;6.570;2023-06-10T13:06:48;32.40;17.20
79711;DHT22;69465;51.630;6.570;2023-06-10T13:09:15;32.40;16.50
79711;DHT22;69465;51.630;6.570;2023-06-10T13:11:42;32.40;17.10
79711;DHT22;69465;51.630;6.570;2023-06-10T13:14:10;32.40;17.00
79711;DHT22;69465;51.630;6.570;2023-06-10T13:16:36;32.40;16.80
79711;DHT22;69465;51.630;6.570;2023-06-10T13:19:05;32.50;16.50
79711;DHT22;69465;51.630;6.570;2023-06-10T13:21:33;32.50;17.30
79711;DHT22;69465;51.630;6.570;2023-06-10T13:24:00;32.50;16.30
79711;DHT22;69465;51.630;6.570;2023-06-10T13:26:27;32.40;16.50
79711;DHT22;69465;51.630;6.570;2023-06-10T13:28:53;32.50;16.90
79711;DHT22;69465;51.630;6.570;2023-06-10T13:31:20;32.50;16.50
79711;DHT22;69465;51.630;6.570;2023-06-10T13:33:47;32.40;17.00
79711;DHT22;69465;51.630;6.570;2023-06-10T13:36:14;32.40;16.70
79711;DHT22;69465;51.630;6.570;2023-06-10T13:38:40;32.40;16.90
79711;DHT22;69465;51.630;6.570;2023-06-10T13:41:07;32.50;16.50
79711;DHT22;69465;51.630;6.570;2023-06-10T13:43:33;32.50;16.10
79711;DHT22;69465;51.630;6.570;2023-06-10T13:46:00;32.50;16.60
79711;DHT22;69465;51.630;6.570;2023-06-10T13:48:27;32.50;17.10
79711;DHT22;69465;51.630;6.570;2023-06-10T13:50:54;32.40;16.50
79711;DHT22;69465;51.630;6.570;2023-06-10T13:53:20;32.40;16.50
79711;DHT22;69465;51.630;6.570;2023-06-10T13:55:47;32.40;16.70
79711;DHT22;69465;51.630;6.570;2023-06-10T13:58:14;32.20;16.40
79711;DHT22;69465;51.630;6.570;2023-06-10T14:00:40;32.20;16.70
79711;DHT22;69465;51.630;6.570;2023-06-10T14:03:07;32.10;17.00
79711;DHT22;69465;51.630;6.570;2023-06-10T14:05:34;32.10;16.80
79711;DHT22;69465;51.630;6.570;2023-06-10T14:08:01;32.20;16.40
79711;DHT22;69465;51.630;6.570;2023-06-10T14:10:27;32.20;16.40
79711;DHT22;69465;51.630;6.570;2023-06-10T14:12:54;32.20;16.70
79711;DHT22;69465;51.630;6.570;2023-06-10T14:15:20;32.20;16.40
79711;DHT22;69465;51.630;6.570;2023-06-10T14:17:47;32.20;16.90
79711;DHT22;69465;51.630;6.570;2023-06-10T14:20:14;32.10;17.00
79711;DHT22;69465;51.630;6.570;2023-06-10T14:22:41;32.10;17.50
79711;DHT22;69465;51.630;6.570;2023-06-10T14:25:08;32.10;16.90
79711;DHT22;69465;51.630;6.570;2023-06-10T14:27:35;32.20;18.00
79711;DHT22;69465;51.630;6.570;2023-06-10T14:30:02;32.10;16.30
79711;DHT22;69465;51.630;6.570;2023-06-10T14:32:29;32.10;17.30
79711;DHT22;69465;51.630;6.570;2023-06-10T14:34:56;32.10;16.60
79711;DHT22;69465;51.630;6.570;2023-06-10T14:37:22;32.20;16.70
79711;DHT22;69465;51.630;6.570;2023-06-10T14:39:49;32.20;16.70
79711;DHT22;69465;51.630;6.570;2023-06-10T14:42:15;32.30;18.70
79711;DHT22;69465;51.630;6.570;2023-06-10T14:44:42;32.10;18.10
79711;DHT22;69465;51.630;6.570;2023-06-10T14:47:08;32.10;16.90
79711;DHT22;69465;51.630;6.570;2023-06-10T14:49:35;32.20;18.00
79711;DHT22;69465;51.630;6.570;2023-06-10T14:52:02;32.20;17.90
79711;DHT22;69465;51.630;6.570;2023-06-10T14:54:28;32.30;17.00
79711;DHT22;69465;51.630;6.570;2023-06-10T14:56:55;32.40;17.60
79711;DHT22;69465;51.630;6.570;2023-06-10T14:59:22;32.40;17.70
79711;DHT22;69465;51.630;6.570;2023-06-10T15:01:49;32.40;17.40
79711;DHT22;69465;51.630;6.570;2023-06-10T15:04:15;32.40;17.20
79711;DHT22;69465;51.630;6.570;2023-06-10T15:06:42;32.20;17.00
79711;DHT22;69465;51.630;6.570;2023-06-10T15:09:09;32.00;17.30
79711;DHT22;69465;51.630;6.570;2023-06-10T15:11:36;31.80;17.40
79711;DHT22;69465;51.630;6.570;2023-06-10T15:14:03;31.70;18.20
79711;DHT22;69465;51.630;6.570;2023-06-10T15:16:29;31.70;17.90
79711;DHT22;69465;51.630;6.570;2023-06-10T15:18:56;31.70;17.90
79711;DHT22;69465;51.630;6.570;2023-06-10T15:21:23;31.70;18.20
79711;DHT22;69465;51.630;6.570;2023-06-10T15:23:49;31.50;18.40
79711;DHT22;69465;51.630;6.570;2023-06-10T15:26:16;31.40;19.10
79711;DHT22;69465;51.630;6.570;2023-06-10T15:28:43;31.30;18.50
79711;DHT22;69465;51.630;6.570;2023-06-10T15:31:10;31.30;18.60
79711;DHT22;69465;51.630;6.570;2023-06-10T15:33:36;31.30;19.40
79711;DHT22;69465;51.630;6.570;2023-06-10T15:36:03;31.40;19.00
79711;DHT22;69465;51.630;6.570;2023-06-10T15:38:30;31.40;18.40
79711;DHT22;69465;51.630;6.570;2023-06-10T15:40:56;31.40;19.80
79711;DHT22;69465;51.630;6.570;2023-06-10T15:43:23;31.40;18.60
79711;DHT22;69465;51.630;6.570;2023-06-10T15:45:50;31.30;18.80